Logo Frankfurt-Egelsbach Airport
Hessische Flugplatz GmbH Egelsbach
Telefon : +49 (0)6103-9418-0
E-Mail : fly@egelsbach-airport.com
   

 

 

 

 

 

 

Aktuelle Daten

Öffnungszeiten: 0800 LT - SS+30 (max 2100 LT)

PPR: 0700 LT - 0800 LT, SS+30 - 2100 LT Tel +49 6103 9418-0

Beschränkung für NVFR-Anflüge mit HPA aufgehoben.

Behördlich vorgeschriebenes Briefing für NVFR-Anflüge mit HPA

» Behördlich vorgeschriebenes Briefing für NVFR-Anflüge mit HPA

Videos Streckenführung

 

Webcam

Webcam

Wetterdaten

Beobachtung von : 29-JUL-2014 - 12:36 UTC
Sonnenaufgang : 03:51 UTC
Sonnenuntergang : 19:13 UTC
Sicht : ausgefallen
Wolkenuntergrenze : nicht feststellbar
Wind : 030 / 8 kt
Wind extrem (10 min) : 360-050 / 6-12 kt
Temperatur : 22.7° Celsius
Taupunkt : 18.3° Celsius
QNH : 1007.9 hPa
Dichtehöhe : 1550 ft

Daten werden automatisch generiert. Verfügbarkeit und Richtigkeit ohne Gewähr.
Mit freundlicher Unterstützung des Deutschen Wetterdienstes

Metar

531
SADL31 EDFE 291220
METAR EDFE 291220Z 01008KT 9999 VCSH FEW026 SCT030CB 23/18 Q1008=


Notam

E1096/14 - EGELSBACH NDB EH 386 NOT FLIGHT CHECKED. DO NOT USE. DISREGARD ALL SIGNALS. 07 MAY 15:00 2014 UNTIL 05 AUG 15:00 2014 ESTIMATED.